Time;durP1;ratioP1;P1;durP2;ratioP2;P2;SDS_P1;SDS_P2;PMS_P1;PMS_P2;Temp;Humidity;BMP_temperature;BMP_pressure;BME280_temperature;BME280_humidity;BME280_pressure;Samples;Min_cycle;Max_cycle;Signal;HPM_P1;HPM_P2
2021/05/31 00:01:56;;;;;;;2.25;1.83;;;12.90;88.20;;;;;;5030913;28;20021;-70
2021/05/31 00:04:22;;;;;;;3.03;1.50;;;13.00;88.40;;;;;;5028847;28;20036;-71
2021/05/31 00:07:04;;;;;;;2.03;1.77;;;13.00;88.40;;;;;;5028458;28;20051;-70
2021/05/31 00:09:32;;;;;;;2.65;2.03;;;13.10;88.30;;;;;;5021996;28;20163;-71
2021/05/31 00:11:58;;;;;;;1.98;1.75;;;13.10;88.30;;;;;;5040702;28;20052;-71
2021/05/31 00:14:25;;;;;;;2.53;1.60;;;13.10;88.10;;;;;;5039719;28;20339;-71
2021/05/31 00:16:51;;;;;;;3.67;1.85;;;13.10;88.00;;;;;;5038022;28;20029;-71
2021/05/31 00:19:19;;;;;;;3.13;1.77;;;13.20;88.20;;;;;;5040202;28;20025;-71
2021/05/31 00:21:46;;;;;;;2.33;1.80;;;13.20;88.10;;;;;;5024151;28;20048;-71
2021/05/31 00:24:12;;;;;;;2.15;1.85;;;13.20;87.80;;;;;;5034301;28;20375;-71
2021/05/31 00:26:38;;;;;;;2.13;1.80;;;13.20;87.40;;;;;;5040247;28;20025;-71
2021/05/31 00:29:04;;;;;;;1.60;1.45;;;13.20;87.30;;;;;;5039700;28;20039;-72
2021/05/31 00:31:30;;;;;;;2.83;1.85;;;13.30;87.10;;;;;;5039715;28;20074;-71
2021/05/31 00:33:56;;;;;;;2.50;1.70;;;13.20;86.80;;;;;;5039974;28;20144;-71
2021/05/31 00:36:21;;;;;;;2.50;1.70;;;13.20;86.50;;;;;;5039049;28;20549;-71
2021/05/31 00:38:47;;;;;;;2.83;1.83;;;13.20;86.50;;;;;;5039747;28;21907;-71
2021/05/31 00:41:13;;;;;;;1.92;1.63;;;13.20;86.50;;;;;;5038736;28;20025;-71
2021/05/31 00:43:39;;;;;;;1.90;1.63;;;13.20;86.30;;;;;;5041549;28;20040;-72
2021/05/31 00:46:06;;;;;;;1.95;1.60;;;13.20;86.20;;;;;;5038463;28;20032;-71
2021/05/31 00:48:33;;;;;;;1.63;1.52;;;13.20;86.10;;;;;;5021970;28;20382;-71
2021/05/31 00:51:00;;;;;;;2.38;1.33;;;13.20;86.10;;;;;;5039657;28;20156;-72
2021/05/31 00:53:26;;;;;;;1.95;1.80;;;13.20;85.90;;;;;;5039244;28;20048;-71
2021/05/31 00:55:52;;;;;;;2.20;1.60;;;13.20;85.70;;;;;;5038916;28;20060;-71
2021/05/31 00:58:18;;;;;;;1.55;1.30;;;13.20;85.70;;;;;;5040037;28;20435;-71
2021/05/31 01:00:44;;;;;;;1.90;1.30;;;13.20;85.50;;;;;;5014168;28;20491;-72
2021/05/31 01:03:10;;;;;;;1.20;1.10;;;13.10;85.40;;;;;;5036213;28;20029;-71
2021/05/31 01:05:37;;;;;;;1.27;1.17;;;13.10;85.40;;;;;;5036605;28;20040;-71
2021/05/31 01:08:09;;;;;;;1.90;1.67;;;13.00;85.40;;;;;;5037544;28;20116;-72
2021/05/31 01:10:43;;;;;;;1.67;1.50;;;13.00;85.80;;;;;;5037407;28;20486;-72
2021/05/31 01:13:40;;;;;;;2.00;1.67;;;13.00;85.50;;;;;;5038881;28;20480;-73
2021/05/31 01:16:12;;;;;;;2.28;1.77;;;12.90;85.30;;;;;;5039914;28;20051;-71
2021/05/31 01:18:41;;;;;;;1.83;1.50;;;12.90;85.30;;;;;;5040368;28;20041;-71
2021/05/31 01:21:15;;;;;;;1.50;1.38;;;12.90;85.40;;;;;;5010620;28;20118;-71
2021/05/31 01:23:44;;;;;;;1.63;1.27;;;12.90;85.60;;;;;;5019115;28;20048;-71
2021/05/31 01:26:28;;;;;;;1.80;1.52;;;12.90;85.90;;;;;;5017905;28;20030;-71
2021/05/31 01:28:53;;;;;;;;;;;12.90;86.10;;;;;;5021255;28;20040;-71
2021/05/31 01:31:51;;;;;;;2.33;1.58;;;12.90;86.60;;;;;;5020391;28;20554;-71
2021/05/31 01:34:24;;;;;;;2.17;1.50;;;12.90;86.30;;;;;;4987397;28;20387;-71
2021/05/31 01:36:57;;;;;;;2.00;1.80;;;13.00;86.70;;;;;;5020535;28;20123;-71
2021/05/31 01:39:28;;;;;;;2.03;1.75;;;13.10;86.70;;;;;;5020655;28;20057;-71
2021/05/31 01:41:55;;;;;;;1.50;1.38;;;13.10;86.50;;;;;;5020620;28;20516;-71
2021/05/31 01:44:21;;;;;;;1.52;1.35;;;13.10;86.70;;;;;;5018949;28;20099;-71
2021/05/31 01:46:49;;;;;;;1.95;1.55;;;13.20;86.50;;;;;;5018808;28;21933;-71
2021/05/31 01:49:16;;;;;;;1.95;1.42;;;13.20;86.50;;;;;;5017515;28;20033;-70
2021/05/31 01:51:43;;;;;;;1.85;1.67;;;13.20;86.50;;;;;;5019200;28;20378;-70
2021/05/31 01:54:11;;;;;;;1.63;1.45;;;13.20;86.20;;;;;;5019187;28;20091;-71
2021/05/31 01:56:38;;;;;;;1.67;1.40;;;13.30;86.30;;;;;;5019146;28;20115;-71
2021/05/31 01:59:06;;;;;;;1.58;1.48;;;13.30;86.20;;;;;;5019171;28;20055;-71
2021/05/31 02:01:33;;;;;;;2.75;2.05;;;13.30;86.20;;;;;;5020869;28;20036;-71
2021/05/31 02:03:59;;;;;;;2.42;1.75;;;13.40;86.30;;;;;;5002958;28;20037;-71
2021/05/31 02:06:25;;;;;;;3.17;1.80;;;13.40;86.20;;;;;;5020396;28;20029;-71
2021/05/31 02:08:51;;;;;;;2.53;1.80;;;13.40;86.10;;;;;;5017230;28;20037;-71
2021/05/31 02:11:49;;;;;;;2.60;2.00;;;13.40;86.00;;;;;;5009027;28;20390;-71
2021/05/31 02:14:26;;;;;;;2.67;1.50;;;13.40;85.70;;;;;;4995261;28;20088;-72
2021/05/31 02:17:30;;;;;;;1.80;1.50;;;13.50;85.70;;;;;;4992043;28;20084;-72
2021/05/31 02:19:59;;;;;;;2.20;1.77;;;13.40;85.20;;;;;;5009073;28;20541;-71
2021/05/31 02:22:26;;;;;;;1.52;1.38;;;13.40;85.60;;;;;;5028547;28;20048;-72
2021/05/31 02:24:54;;;;;;;1.95;1.40;;;13.40;85.70;;;;;;5026842;28;20033;-72
2021/05/31 02:27:21;;;;;;;1.90;1.50;;;13.40;85.70;;;;;;5029174;28;20087;-72
2021/05/31 02:29:47;;;;;;;2.00;1.50;;;13.50;85.90;;;;;;5029503;28;20429;-72
2021/05/31 02:32:13;;;;;;;2.38;1.80;;;13.50;86.00;;;;;;5014163;28;20032;-72
2021/05/31 02:34:38;;;;;;;1.98;1.35;;;13.50;86.00;;;;;;5031918;28;20040;-71
2021/05/31 02:37:04;;;;;;;1.83;1.73;;;13.50;85.90;;;;;;5031122;28;20043;-72
2021/05/31 02:39:30;;;;;;;2.47;1.85;;;13.60;85.80;;;;;;5030276;28;20090;-71
2021/05/31 02:41:56;;;;;;;2.92;2.00;;;13.60;85.60;;;;;;5036498;28;20033;-72
2021/05/31 02:44:21;;;;;;;3.60;2.30;;;13.60;85.40;;;;;;5033085;28;20033;-72
2021/05/31 02:46:47;;;;;;;2.50;1.85;;;13.60;85.30;;;;;;5032544;28;20037;-72
2021/05/31 02:49:13;;;;;;;2.95;1.50;;;13.60;85.40;;;;;;5029454;28;20083;-72
2021/05/31 02:51:38;;;;;;;3.22;2.25;;;13.60;85.70;;;;;;5038977;28;20021;-72
2021/05/31 02:54:06;;;;;;;3.05;1.77;;;13.70;85.70;;;;;;5042439;28;20079;-72
2021/05/31 02:56:33;;;;;;;4.00;2.17;;;13.70;85.60;;;;;;5022176;28;20033;-72
2021/05/31 02:58:59;;;;;;;2.13;1.70;;;13.70;85.40;;;;;;5023794;28;20151;-72
2021/05/31 03:01:24;;;;;;;3.35;1.98;;;13.70;85.20;;;;;;5041310;28;20036;-72
2021/05/31 03:03:50;;;;;;;1.73;1.60;;;13.70;85.30;;;;;;5022750;28;20538;-73
2021/05/31 03:06:16;;;;;;;2.63;2.10;;;13.70;85.40;;;;;;5040581;28;20078;-72
2021/05/31 03:08:41;;;;;;;3.53;1.98;;;13.70;85.50;;;;;;5040128;28;20033;-72
2021/05/31 03:11:07;;;;;;;2.90;2.20;;;13.70;85.80;;;;;;5039354;28;20962;-72
2021/05/31 03:13:32;;;;;;;2.90;2.17;;;13.70;85.70;;;;;;5041745;28;20390;-73
2021/05/31 03:15:58;;;;;;;2.75;2.15;;;13.70;85.90;;;;;;5027403;28;20071;-72
2021/05/31 03:18:24;;;;;;;2.83;1.98;;;13.70;85.90;;;;;;5039109;28;20040;-72
2021/05/31 03:20:50;;;;;;;2.88;2.08;;;13.70;86.00;;;;;;5022951;28;20126;-72
2021/05/31 03:23:16;;;;;;;2.83;2.10;;;13.80;86.00;;;;;;5040680;28;20086;-72
2021/05/31 03:25:41;;;;;;;2.80;2.03;;;13.80;85.70;;;;;;5040141;28;20036;-72
2021/05/31 03:28:09;;;;;;;3.53;2.20;;;13.80;85.70;;;;;;5040636;28;20049;-72
2021/05/31 03:30:35;;;;;;;2.90;2.10;;;13.90;85.60;;;;;;5041275;28;20021;-72
2021/05/31 03:33:01;;;;;;;2.45;2.10;;;13.90;85.40;;;;;;5038009;28;20071;-73
2021/05/31 03:35:28;;;;;;;3.60;2.00;;;14.00;85.50;;;;;;5040099;28;20036;-72
2021/05/31 03:37:54;;;;;;;3.22;2.22;;;14.00;85.60;;;;;;5022910;28;20673;-72
2021/05/31 03:40:21;;;;;;;2.92;2.05;;;14.10;85.40;;;;;;5022178;28;20029;-71
2021/05/31 03:42:49;;;;;;;4.03;2.40;;;14.10;85.10;;;;;;5040384;28;20029;-72
2021/05/31 03:45:15;;;;;;;2.72;2.10;;;14.10;84.60;;;;;;5040694;28;20026;-71
2021/05/31 03:47:40;;;;;;;2.88;2.13;;;14.10;84.80;;;;;;5038858;28;20043;-71
2021/05/31 03:50:07;;;;;;;3.30;2.03;;;14.10;84.60;;;;;;5036592;28;20733;-72
2021/05/31 03:52:33;;;;;;;3.45;2.05;;;14.20;84.90;;;;;;5038579;28;20559;-72
2021/05/31 03:54:58;;;;;;;3.08;2.30;;;14.20;84.40;;;;;;5038165;28;20033;-71
2021/05/31 03:57:24;;;;;;;3.45;2.30;;;14.20;83.90;;;;;;5038066;28;20039;-72
2021/05/31 03:59:52;;;;;;;2.40;2.20;;;14.20;83.90;;;;;;5038716;28;20401;-71
2021/05/31 04:02:17;;;;;;;3.03;2.50;;;14.20;83.90;;;;;;5038464;28;20421;-71
2021/05/31 04:04:46;;;;;;;4.20;2.03;;;14.20;83.60;;;;;;5036952;28;20078;-71
2021/05/31 04:12:43;;;;;;;3.15;2.17;;;14.20;83.80;;;;;;5038660;28;20045;-72
2021/05/31 04:15:09;;;;;;;2.85;2.25;;;14.20;83.50;;;;;;5038115;28;20682;-71
2021/05/31 04:17:35;;;;;;;3.03;2.13;;;14.20;83.60;;;;;;5037416;28;20033;-72
2021/05/31 04:20:01;;;;;;;2.85;2.30;;;14.20;84.20;;;;;;5037112;28;20038;-72
2021/05/31 04:22:27;;;;;;;2.88;2.20;;;14.30;83.20;;;;;;5021140;28;20056;-71
2021/05/31 04:24:52;;;;;;;3.03;2.20;;;14.30;83.20;;;;;;5030570;28;20029;-72
2021/05/31 04:27:18;;;;;;;4.07;2.35;;;14.30;83.10;;;;;;5035662;28;20068;-72
2021/05/31 04:29:44;;;;;;;3.42;2.13;;;14.30;83.10;;;;;;5036574;28;20025;-71
2021/05/31 04:32:10;;;;;;;4.40;2.58;;;14.30;83.10;;;;;;5037010;28;20025;-71
2021/05/31 04:34:35;;;;;;;3.08;2.50;;;14.30;83.40;;;;;;5039157;28;20028;-73
2021/05/31 04:37:01;;;;;;;4.63;2.65;;;14.40;83.40;;;;;;5038088;28;20032;-72
2021/05/31 04:39:27;;;;;;;3.85;2.58;;;14.40;83.00;;;;;;5018521;28;20044;-72
2021/05/31 04:41:52;;;;;;;4.38;2.65;;;14.40;83.00;;;;;;5038462;28;20028;-72
2021/05/31 04:44:18;;;;;;;5.10;2.50;;;14.50;83.30;;;;;;5011406;28;20087;-71
2021/05/31 04:46:44;;;;;;;2.90;2.20;;;14.50;82.80;;;;;;5038540;28;20040;-72
2021/05/31 04:49:09;;;;;;;2.90;2.00;;;14.50;82.00;;;;;;5036439;28;20026;-72
2021/05/31 04:51:36;;;;;;;2.10;1.90;;;14.50;81.80;;;;;;5025690;28;20033;-71
2021/05/31 04:54:01;;;;;;;2.83;2.15;;;14.60;82.00;;;;;;5025263;28;20029;-71
2021/05/31 04:56:27;;;;;;;3.80;2.42;;;14.60;81.10;;;;;;5025732;28;20103;-71
2021/05/31 04:58:53;;;;;;;2.35;2.08;;;14.60;80.70;;;;;;5024886;28;20039;-71
2021/05/31 05:01:19;;;;;;;2.97;2.33;;;14.60;81.10;;;;;;5024611;28;20025;-71
2021/05/31 05:03:45;;;;;;;3.35;2.50;;;14.60;80.90;;;;;;5024527;28;20033;-71
2021/05/31 05:06:11;;;;;;;3.67;3.00;;;14.60;81.10;;;;;;5025528;28;20025;-72
2021/05/31 05:08:37;;;;;;;3.55;2.70;;;14.60;80.80;;;;;;5024975;28;20095;-73
2021/05/31 05:11:03;;;;;;;5.90;3.70;;;14.60;80.70;;;;;;5026338;28;20037;-72
2021/05/31 05:13:29;;;;;;;5.55;3.20;;;14.60;81.00;;;;;;5005331;28;20033;-72
2021/05/31 05:15:54;;;;;;;3.95;3.22;;;14.60;80.10;;;;;;5036522;28;20067;-71
2021/05/31 05:18:20;;;;;;;4.38;2.60;;;14.60;80.20;;;;;;5037433;28;20032;-71
2021/05/31 05:20:46;;;;;;;2.95;2.33;;;14.50;80.20;;;;;;5036580;28;20037;-71
2021/05/31 05:23:12;;;;;;;3.65;2.67;;;14.50;80.30;;;;;;5036004;28;20167;-71
2021/05/31 05:25:38;;;;;;;3.28;2.42;;;14.50;80.30;;;;;;5028675;28;20025;-71
2021/05/31 05:28:04;;;;;;;3.63;2.50;;;14.50;79.60;;;;;;5029026;28;20032;-71
2021/05/31 05:30:33;;;;;;;4.38;2.45;;;14.50;79.70;;;;;;5007203;28;20068;-71
2021/05/31 05:33:00;;;;;;;4.05;2.40;;;14.60;80.10;;;;;;5028154;28;20033;-71
2021/05/31 05:35:34;;;;;;;2.85;2.15;;;14.60;80.30;;;;;;5016825;28;20038;-71
2021/05/31 05:43:31;;;;;;;2.45;2.10;;;14.70;79.10;;;;;;5014342;28;20033;-72
2021/05/31 05:48:29;;;;;;;3.58;2.60;;;14.70;78.50;;;;;;5020032;28;20037;-70
2021/05/31 05:51:06;;;;;;;3.08;2.35;;;14.70;78.40;;;;;;5013908;28;20033;-71
2021/05/31 05:53:33;;;;;;;3.33;2.63;;;14.60;78.50;;;;;;5019859;28;20029;-72
2021/05/31 05:55:59;;;;;;;2.65;1.90;;;14.70;79.00;;;;;;5019103;28;20037;-72
2021/05/31 05:58:28;;;;;;;2.85;2.25;;;14.70;78.70;;;;;;5021569;28;20029;-71
2021/05/31 06:00:55;;;;;;;3.38;2.30;;;14.60;78.20;;;;;;5016746;28;20033;-72
2021/05/31 06:03:20;;;;;;;3.10;2.20;;;14.60;78.10;;;;;;5015411;28;20044;-72
2021/05/31 06:05:46;;;;;;;2.35;2.10;;;14.60;78.60;;;;;;5020101;28;20056;-71
2021/05/31 06:08:12;;;;;;;3.65;2.20;;;14.60;79.00;;;;;;5014292;28;20059;-72
2021/05/31 06:10:37;;;;;;;2.78;2.10;;;14.60;78.70;;;;;;5024696;28;20125;-72
2021/05/31 06:13:03;;;;;;;3.38;2.00;;;14.60;78.90;;;;;;5013988;28;20557;-71
2021/05/31 06:15:29;;;;;;;3.70;2.22;;;14.70;78.90;;;;;;5008118;28;20032;-71
2021/05/31 06:17:54;;;;;;;4.20;2.20;;;14.70;78.80;;;;;;5009709;28;20447;-70
2021/05/31 06:20:20;;;;;;;3.70;2.10;;;14.70;79.10;;;;;;4993407;28;20389;-72
2021/05/31 06:22:46;;;;;;;2.67;2.22;;;14.80;78.50;;;;;;5020341;28;20562;-72
2021/05/31 06:25:13;;;;;;;3.22;1.80;;;14.90;78.50;;;;;;5016163;28;20041;-69
2021/05/31 06:27:38;;;;;;;2.00;1.80;;;14.90;77.60;;;;;;5019416;28;20040;-71
2021/05/31 06:30:06;;;;;;;2.67;2.30;;;15.00;77.80;;;;;;5003588;28;20032;-71
2021/05/31 06:32:32;;;;;;;1.73;1.52;;;15.00;77.80;;;;;;5027053;28;20029;-69
2021/05/31 06:34:58;;;;;;;3.25;1.70;;;15.20;77.40;;;;;;5020608;28;20724;-69
2021/05/31 06:37:23;;;;;;;2.67;2.17;;;15.20;77.40;;;;;;5016728;28;20049;-69
2021/05/31 06:39:50;;;;;;;3.13;2.58;;;15.30;77.10;;;;;;5005734;28;20067;-70
2021/05/31 06:42:15;;;;;;;4.78;3.15;;;15.30;77.00;;;;;;5001797;28;20394;-68
2021/05/31 06:44:41;;;;;;;4.10;3.05;;;15.30;76.30;;;;;;5027534;28;20033;-68
2021/05/31 06:47:08;;;;;;;5.72;2.90;;;15.30;75.90;;;;;;5015678;28;20037;-67
2021/05/31 06:49:36;;;;;;;4.65;2.65;;;15.30;76.10;;;;;;5025235;28;20025;-69
2021/05/31 06:52:04;;;;;;;3.88;2.78;;;15.20;76.20;;;;;;5019142;28;20120;-70
2021/05/31 06:54:30;;;;;;;5.50;3.00;;;15.20;75.80;;;;;;5017234;28;20391;-69
2021/05/31 06:56:55;;;;;;;4.03;2.83;;;15.20;75.70;;;;;;5020612;28;20442;-71
2021/05/31 06:59:21;;;;;;;4.18;2.80;;;15.20;75.60;;;;;;5018466;28;20094;-71
2021/05/31 07:01:47;;;;;;;2.97;2.60;;;15.20;76.00;;;;;;5013991;28;20132;-71
2021/05/31 07:04:13;;;;;;;4.53;2.60;;;15.20;75.90;;;;;;5017119;28;20739;-69
2021/05/31 07:06:39;;;;;;;3.55;2.60;;;15.20;75.70;;;;;;5004202;28;20241;-71
2021/05/31 07:09:05;;;;;;;3.75;2.40;;;15.20;76.30;;;;;;5021522;28;20448;-71
2021/05/31 07:11:30;;;;;;;4.30;2.47;;;15.30;76.70;;;;;;5013807;28;20040;-71
2021/05/31 07:13:57;;;;;;;6.03;3.38;;;15.40;76.40;;;;;;5011256;28;20024;-70
2021/05/31 07:16:23;;;;;;;3.97;2.63;;;15.40;75.20;;;;;;5017850;28;20083;-71
2021/05/31 07:18:49;;;;;;;3.47;2.25;;;15.50;75.30;;;;;;5018160;28;20124;-71
2021/05/31 07:21:15;;;;;;;2.58;2.28;;;15.50;75.70;;;;;;5027315;28;20049;-71
2021/05/31 07:23:41;;;;;;;3.88;2.40;;;15.50;74.80;;;;;;5016938;28;20033;-70
2021/05/31 07:26:07;;;;;;;4.10;2.65;;;15.60;74.80;;;;;;5026125;28;20153;-70
2021/05/31 07:28:33;;;;;;;3.47;2.20;;;15.60;74.00;;;;;;5029496;28;20033;-71
2021/05/31 07:31:00;;;;;;;4.15;2.40;;;15.60;73.90;;;;;;5031000;28;20033;-71
2021/05/31 07:33:26;;;;;;;2.97;2.17;;;15.60;73.60;;;;;;5025208;28;20052;-71
2021/05/31 07:35:53;;;;;;;3.10;2.22;;;15.60;73.20;;;;;;5028898;28;20144;-71
2021/05/31 07:38:20;;;;;;;2.80;2.00;;;15.70;73.60;;;;;;5018703;28;20030;-71
2021/05/31 07:40:46;;;;;;;3.22;2.05;;;15.70;73.60;;;;;;5030503;28;20036;-70
2021/05/31 07:43:11;;;;;;;4.03;2.25;;;15.80;72.80;;;;;;5028321;28;22058;-72
2021/05/31 07:45:37;;;;;;;2.15;1.90;;;15.90;72.10;;;;;;5015826;28;20502;-72
2021/05/31 07:48:05;;;;;;;2.10;1.80;;;16.00;72.90;;;;;;5017490;28;20551;-71
2021/05/31 07:50:30;;;;;;;3.63;2.00;;;16.20;73.50;;;;;;5023485;28;20382;-71
2021/05/31 07:52:56;;;;;;;5.35;2.08;;;16.40;72.80;;;;;;5019049;28;20030;-72
2021/05/31 07:55:22;;;;;;;2.65;2.13;;;16.50;72.30;;;;;;5023464;28;20037;-72
2021/05/31 07:57:49;;;;;;;2.63;2.22;;;16.60;72.60;;;;;;5020074;28;20132;-73
2021/05/31 08:00:18;;;;;;;2.50;2.20;;;16.80;72.30;;;;;;5025587;28;21412;-71
2021/05/31 08:02:44;;;;;;;2.88;2.35;;;16.90;71.20;;;;;;5033070;28;20029;-69
2021/05/31 08:05:14;;;;;;;3.17;2.28;;;17.00;71.10;;;;;;5033794;28;20112;-68
2021/05/31 08:07:39;;;;;;;2.63;2.00;;;17.10;70.40;;;;;;5023167;28;20033;-69
2021/05/31 08:10:06;;;;;;;2.78;2.20;;;17.10;70.50;;;;;;5020232;28;20090;-70
2021/05/31 08:12:35;;;;;;;5.22;2.20;;;17.20;70.10;;;;;;5022431;28;20505;-70
2021/05/31 08:15:03;;;;;;;2.08;1.80;;;17.10;69.20;;;;;;5019686;28;20025;-69
2021/05/31 08:17:28;;;;;;;2.40;1.90;;;17.00;69.40;;;;;;5021900;28;20041;-70
2021/05/31 08:19:54;;;;;;;2.60;2.03;;;16.90;69.30;;;;;;5023534;28;20067;-72
2021/05/31 08:22:20;;;;;;;2.13;1.92;;;16.80;69.00;;;;;;5024775;28;20052;-70
2021/05/31 08:24:46;;;;;;;2.00;1.80;;;16.60;68.70;;;;;;5017327;28;20033;-71
2021/05/31 08:27:11;;;;;;;2.95;1.80;;;16.50;69.00;;;;;;5023380;28;20506;-71
2021/05/31 08:29:37;;;;;;;2.25;1.75;;;16.40;68.70;;;;;;5007428;28;20064;-70
2021/05/31 08:32:03;;;;;;;2.00;1.80;;;16.20;69.10;;;;;;5025947;28;20553;-70
2021/05/31 08:34:29;;;;;;;3.05;2.00;;;16.10;69.10;;;;;;5004734;28;20021;-70
2021/05/31 08:36:55;;;;;;;2.13;1.80;;;16.10;69.40;;;;;;5021971;28;20029;-69
2021/05/31 08:39:21;;;;;;;2.53;1.80;;;16.00;70.00;;;;;;5020274;28;20530;-69
2021/05/31 08:41:47;;;;;;;2.00;1.80;;;16.00;69.90;;;;;;5027505;28;20042;-70
2021/05/31 08:44:13;;;;;;;3.45;2.08;;;16.00;70.00;;;;;;5024059;28;20036;-68
2021/05/31 08:46:40;;;;;;;4.07;1.85;;;16.00;69.80;;;;;;5016480;28;20029;-69
2021/05/31 08:49:07;;;;;;;2.03;1.75;;;16.10;69.70;;;;;;5005828;28;20493;-69
2021/05/31 08:51:33;;;;;;;1.88;1.50;;;16.10;69.80;;;;;;5018352;28;20021;-70
2021/05/31 08:54:00;;;;;;;4.55;2.05;;;16.10;69.40;;;;;;5022017;28;20029;-70
2021/05/31 08:56:26;;;;;;;2.10;1.70;;;16.10;69.00;;;;;;5018610;28;20029;-71
2021/05/31 08:58:52;;;;;;;2.33;1.63;;;16.10;68.80;;;;;;5019416;28;20037;-70
2021/05/31 09:01:20;;;;;;;2.35;1.98;;;16.00;69.00;;;;;;5021782;28;20048;-71
2021/05/31 09:03:46;;;;;;;2.22;2.00;;;16.00;68.50;;;;;;5014863;28;20107;-72
2021/05/31 09:06:15;;;;;;;2.30;1.80;;;16.00;68.20;;;;;;5017521;28;20035;-71
2021/05/31 09:08:51;;;;;;;2.15;1.77;;;15.90;68.50;;;;;;5023114;28;20120;-70
2021/05/31 09:11:20;;;;;;;2.30;1.45;;;15.90;69.20;;;;;;5007384;28;20122;-71
2021/05/31 09:13:46;;;;;;;4.10;1.80;;;15.90;70.30;;;;;;5006085;28;20596;-71
2021/05/31 09:16:17;;;;;;;2.03;1.60;;;16.00;69.70;;;;;;4990879;28;20068;-71
2021/05/31 09:18:47;;;;;;;3.67;2.28;;;16.10;69.90;;;;;;5016061;28;20025;-71
2021/05/31 09:21:24;;;;;;;2.42;1.90;;;16.20;69.40;;;;;;4988589;28;20115;-72
2021/05/31 09:23:58;;;;;;;2.67;2.03;;;16.30;67.90;;;;;;4972394;28;20112;-71
2021/05/31 09:26:25;;;;;;;3.60;2.28;;;16.40;68.60;;;;;;4980394;28;21019;-71
2021/05/31 09:28:58;;;;;;;3.20;2.30;;;16.60;69.10;;;;;;5011911;28;20034;-72
2021/05/31 09:31:26;;;;;;;3.00;2.30;;;16.70;67.30;;;;;;5003314;28;20364;-72
2021/05/31 09:34:09;;;;;;;3.55;1.95;;;16.80;67.30;;;;;;5006425;28;20112;-72
2021/05/31 09:36:51;;;;;;;3.33;2.05;;;16.90;65.50;;;;;;5000542;28;20033;-70
2021/05/31 09:39:17;;;;;;;2.75;2.03;;;16.90;66.50;;;;;;5005510;28;20036;-71
2021/05/31 09:41:43;;;;;;;3.47;1.95;;;17.00;66.80;;;;;;5006367;28;20033;-71
2021/05/31 09:44:10;;;;;;;8.00;4.32;;;17.20;67.10;;;;;;5000393;28;20037;-72
2021/05/31 09:46:39;;;;;;;15.02;6.82;;;17.40;66.50;;;;;;4987379;28;20029;-70
2021/05/31 09:49:20;;;;;;;24.17;10.25;;;17.60;65.80;;;;;;4986702;28;20951;-70
2021/05/31 09:52:03;;;;;;;11.52;5.88;;;17.80;65.60;;;;;;5007007;28;20112;-70
2021/05/31 09:54:42;;;;;;;;;;;18.10;65.20;;;;;;5003978;28;20083;-70
2021/05/31 09:57:23;;;;;;;3.15;2.28;;;18.20;63.80;;;;;;5004225;28;19925;-70
2021/05/31 10:00:17;;;;;;;6.32;4.15;;;18.50;63.30;;;;;;4999798;28;20026;-69
2021/05/31 10:03:04;;;;;;;2.17;1.98;;;18.70;62.10;;;;;;5000508;28;20030;-70
2021/05/31 10:10:36;;;;;;;1.90;1.65;;;19.20;62.60;;;;;;5006987;28;20068;-73
2021/05/31 10:13:03;;;;;;;1.10;1.00;;;19.30;61.30;;;;;;4993054;28;20041;-73
2021/05/31 10:15:41;;;;;;;2.15;1.05;;;19.40;60.10;;;;;;5001553;28;20025;-73
2021/05/31 10:18:09;;;;;;;1.13;1.10;;;19.30;58.60;;;;;;5002674;28;20033;-72
2021/05/31 10:20:39;;;;;;;2.63;1.45;;;19.30;59.70;;;;;;5012466;28;20044;-73
2021/05/31 10:23:06;;;;;;;1.00;1.00;;;19.30;59.90;;;;;;5028282;28;20406;-72
2021/05/31 10:25:34;;;;;;;0.88;0.80;;;19.30;59.70;;;;;;5024606;28;20460;-73
2021/05/31 10:28:09;;;;;;;2.35;1.23;;;19.30;60.00;;;;;;5025705;28;20048;-73
2021/05/31 10:30:48;;;;;;;1.20;1.10;;;19.40;59.70;;;;;;5027645;28;20033;-72
2021/05/31 10:33:16;;;;;;;2.60;1.50;;;19.40;58.10;;;;;;5018928;28;20025;-71
2021/05/31 10:35:42;;;;;;;1.67;1.40;;;19.30;58.50;;;;;;5019795;28;20067;-71
2021/05/31 10:38:34;;;;;;;1.67;1.20;;;19.20;59.20;;;;;;4995655;28;20116;-73
2021/05/31 10:41:09;;;;;;;1.20;1.20;;;19.20;57.60;;;;;;5018548;28;20037;-72
2021/05/31 10:43:43;;;;;;;1.38;1.27;;;19.20;58.80;;;;;;5023099;28;20502;-72
2021/05/31 10:46:14;;;;;;;1.48;1.23;;;19.20;58.30;;;;;;5023698;28;20033;-71
2021/05/31 10:48:46;;;;;;;1.92;1.20;;;19.10;59.10;;;;;;5002075;28;20071;-71
2021/05/31 10:51:27;;;;;;;1.55;1.38;;;19.30;58.70;;;;;;4997697;28;20052;-72
2021/05/31 10:53:54;;;;;;;2.38;1.45;;;19.40;57.60;;;;;;5027790;28;20100;-71
2021/05/31 10:56:29;;;;;;;1.23;1.02;;;19.50;58.80;;;;;;5022806;28;20951;-70
2021/05/31 10:58:59;;;;;;;1.23;1.13;;;19.60;57.20;;;;;;5028375;28;20044;-71
2021/05/31 11:01:28;;;;;;;3.50;1.27;;;19.70;58.10;;;;;;5024788;28;20020;-72
2021/05/31 11:04:06;;;;;;;1.25;1.15;;;19.80;57.70;;;;;;5003161;28;20119;-72
2021/05/31 11:06:42;;;;;;;3.08;1.40;;;19.80;58.50;;;;;;4991803;28;20067;-71
2021/05/31 11:09:12;;;;;;;2.88;1.65;;;19.90;56.80;;;;;;5024772;28;20041;-71
2021/05/31 11:11:40;;;;;;;1.45;1.35;;;19.80;58.00;;;;;;5002972;28;20025;-71
2021/05/31 11:14:07;;;;;;;1.52;1.42;;;19.70;57.60;;;;;;5015620;28;20316;-73
2021/05/31 11:16:35;;;;;;;1.13;1.08;;;19.40;57.30;;;;;;5017745;28;20395;-75
2021/05/31 11:19:04;;;;;;;1.40;1.25;;;19.10;57.40;;;;;;5006702;28;20082;-73
2021/05/31 11:21:40;;;;;;;1.65;1.50;;;18.70;57.60;;;;;;5025992;28;20076;-72
2021/05/31 11:24:06;;;;;;;2.40;1.48;;;18.40;57.90;;;;;;5023986;28;20029;-72
2021/05/31 11:26:38;;;;;;;1.83;1.50;;;18.10;58.50;;;;;;5019247;28;20048;-75
2021/05/31 11:29:07;;;;;;;1.33;1.20;;;17.90;58.80;;;;;;5020931;28;20037;-71
2021/05/31 11:31:34;;;;;;;0.77;0.75;;;17.70;59.20;;;;;;5013826;28;20378;-73
2021/05/31 11:34:01;;;;;;;1.20;1.10;;;17.50;59.80;;;;;;5005036;28;20056;-72
2021/05/31 11:36:38;;;;;;;1.20;1.10;;;17.60;60.30;;;;;;5009877;28;20025;-75
2021/05/31 11:39:15;;;;;;;1.50;0.93;;;17.60;60.10;;;;;;5027570;28;20029;-74
2021/05/31 11:41:44;;;;;;;1.33;1.23;;;17.60;60.10;;;;;;5021431;28;20227;-73
2021/05/31 11:44:12;;;;;;;1.08;1.00;;;17.70;59.80;;;;;;5020122;28;20431;-76
2021/05/31 11:46:59;;;;;;;1.20;1.08;;;17.80;59.70;;;;;;5024010;28;20132;-73
2021/05/31 11:49:27;;;;;;;2.28;1.42;;;17.70;59.40;;;;;;5022292;28;20060;-73
2021/05/31 11:52:07;;;;;;;1.50;1.13;;;17.70;59.00;;;;;;5019525;28;20160;-75
2021/05/31 11:54:38;;;;;;;1.45;0.90;;;17.70;58.90;;;;;;5021470;28;20029;-72
2021/05/31 11:57:07;;;;;;;0.90;0.80;;;17.80;59.20;;;;;;5007152;28;20041;-73
2021/05/31 11:59:41;;;;;;;2.40;0.88;;;17.80;59.30;;;;;;5019972;28;20029;-73
2021/05/31 12:02:09;;;;;;;1.05;0.93;;;17.90;59.50;;;;;;5020557;28;20029;-74
2021/05/31 12:04:38;;;;;;;0.70;0.70;;;17.90;58.90;;;;;;5020004;28;20032;-73
2021/05/31 12:07:07;;;;;;;1.08;1.00;;;17.90;59.10;;;;;;4994182;28;20033;-72
2021/05/31 12:09:35;;;;;;;1.77;0.80;;;17.90;59.10;;;;;;5018981;28;20490;-72
2021/05/31 12:12:02;;;;;;;2.75;1.02;;;17.90;59.50;;;;;;5003267;28;20040;-72
2021/05/31 12:14:29;;;;;;;1.25;0.85;;;18.00;59.40;;;;;;5016154;28;20037;-72
2021/05/31 12:17:00;;;;;;;1.67;0.80;;;17.90;59.30;;;;;;5011495;28;20660;-74
2021/05/31 12:19:28;;;;;;;1.00;0.90;;;17.90;58.60;;;;;;5002560;28;20202;-73
2021/05/31 12:21:56;;;;;;;1.02;0.80;;;17.70;59.30;;;;;;5012216;28;20497;-73
2021/05/31 12:24:30;;;;;;;1.13;0.70;;;17.60;59.30;;;;;;5002385;28;20064;-72
2021/05/31 12:26:58;;;;;;;1.50;0.75;;;17.40;59.60;;;;;;5022685;28;20033;-72
2021/05/31 12:29:46;;;;;;;4.20;1.50;;;17.40;60.10;;;;;;5022387;28;20505;-75
2021/05/31 12:32:15;;;;;;;1.17;1.08;;;17.50;60.20;;;;;;5001956;28;20029;-71
2021/05/31 12:34:41;;;;;;;1.13;1.00;;;17.50;60.20;;;;;;5022392;28;20025;-72
2021/05/31 12:37:10;;;;;;;1.00;0.90;;;17.40;59.80;;;;;;5004132;28;20036;-71
2021/05/31 12:39:41;;;;;;;1.70;1.10;;;17.40;59.90;;;;;;5013969;28;20028;-72
2021/05/31 12:42:07;;;;;;;0.93;0.90;;;17.50;60.60;;;;;;5005985;28;22767;-73
2021/05/31 12:44:33;;;;;;;1.13;0.90;;;17.50;60.00;;;;;;5021094;28;20067;-72
2021/05/31 12:47:09;;;;;;;3.15;1.30;;;17.50;60.10;;;;;;5019135;28;20033;-72
2021/05/31 12:50:02;;;;;;;2.33;1.90;;;17.40;60.30;;;;;;5003385;28;20116;-72
2021/05/31 12:52:31;;;;;;;1.88;1.55;;;17.20;60.80;;;;;;5010753;28;20044;-70
2021/05/31 12:55:10;;;;;;;1.98;1.77;;;17.10;61.00;;;;;;5017927;28;20499;-71
2021/05/31 12:57:48;;;;;;;1.08;0.98;;;16.90;61.20;;;;;;5017401;28;20030;-72
2021/05/31 13:00:16;;;;;;;1.23;0.88;;;16.80;61.50;;;;;;5018981;28;20409;-70
2021/05/31 13:02:44;;;;;;;1.05;0.90;;;16.70;61.70;;;;;;5006324;28;20598;-71
2021/05/31 13:05:12;;;;;;;1.52;1.08;;;16.60;62.00;;;;;;5024200;28;20103;-70
2021/05/31 13:07:40;;;;;;;2.75;1.27;;;16.60;62.40;;;;;;5019125;28;21106;-70
2021/05/31 13:10:15;;;;;;;1.10;1.00;;;16.60;62.50;;;;;;5018953;28;20032;-70
2021/05/31 13:12:58;;;;;;;0.80;0.80;;;16.50;62.70;;;;;;5013910;28;20631;-69
2021/05/31 13:15:42;;;;;;;1.00;0.90;;;16.60;63.30;;;;;;5016345;28;20040;-70